createdAt,value
2018-02-12T13:16:44.635Z,17.8
2018-02-12T13:17:47.244Z,17.8
2018-02-12T13:18:49.815Z,17.8
2018-02-12T13:19:52.544Z,17.8
2018-02-12T13:20:55.063Z,17.8
2018-02-12T13:21:57.563Z,17.7
2018-02-12T13:23:00.129Z,17.8
2018-02-12T13:24:02.819Z,17.7
2018-02-12T13:25:05.257Z,17.8
2018-02-12T13:26:07.872Z,17.8
2018-02-12T13:27:10.604Z,17.8
2018-02-12T13:28:13.236Z,17.8
2018-02-12T13:29:15.840Z,17.8
2018-02-12T13:30:18.347Z,17.8
2018-02-12T13:31:20.929Z,17.8
2018-02-12T13:32:23.428Z,17.8
2018-02-12T13:33:26.022Z,17.8
2018-02-12T13:34:28.565Z,17.8
2018-02-12T13:35:31.113Z,17.8
2018-02-12T13:36:33.571Z,17.8
2018-02-12T13:37:36.197Z,17.7
2018-02-12T13:38:38.630Z,17.8
2018-02-12T13:39:41.180Z,17.8
2018-02-12T13:40:43.648Z,17.8
2018-02-12T13:41:46.276Z,17.6
2018-02-12T13:42:48.882Z,17.8
2018-02-12T13:43:51.431Z,17.8
2018-02-12T13:44:53.903Z,17.8
2018-02-12T13:45:56.440Z,17.7
2018-02-12T13:47:04.201Z,17.7
2018-02-12T13:48:06.997Z,17.7
2018-02-12T13:49:09.689Z,17.8
2018-02-12T13:50:12.413Z,17.8
2018-02-12T13:51:14.943Z,17.8
2018-02-12T13:52:17.674Z,17.8
2018-02-12T13:53:20.220Z,17.8
2018-02-12T13:54:26.957Z,17.8
2018-02-12T13:55:29.610Z,17.8
2018-02-12T13:56:32.139Z,17.8
2018-02-12T13:57:34.657Z,17.7
2018-02-12T13:58:37.465Z,17.6
2018-02-12T13:59:39.941Z,17.6
2018-02-12T14:00:42.768Z,17.6
2018-02-12T14:01:45.320Z,17.8
2018-02-12T14:02:48.092Z,17.7
2018-02-12T14:03:50.669Z,17.8
2018-02-12T14:04:54.080Z,17.8
2018-02-12T14:05:56.764Z,17.7
2018-02-12T14:07:04.342Z,17.8
2018-02-12T14:08:08.245Z,17.8
2018-02-12T14:09:10.830Z,17.7
2018-02-12T14:10:13.410Z,17.7
2018-02-12T14:11:16.009Z,17.8
2018-02-12T14:12:18.545Z,17.8
2018-02-12T14:13:21.094Z,17.7
2018-02-12T14:14:23.656Z,17.7
2018-02-12T14:15:26.316Z,17.7
2018-02-12T14:16:28.945Z,17.6
2018-02-12T14:17:31.440Z,17.6
2018-02-12T14:18:33.900Z,17.7
2018-02-12T14:19:36.441Z,17.6
2018-02-12T14:20:38.935Z,17.6
2018-02-12T14:21:41.556Z,17.6
2018-02-12T14:22:44.127Z,17.6
2018-02-12T14:23:46.849Z,17.6
2018-02-12T14:24:49.424Z,17.6
2018-02-12T14:25:52.006Z,17.6
2018-02-12T14:26:54.694Z,17.5
2018-02-12T14:27:57.273Z,17.6
2018-02-12T14:28:59.768Z,17.5
2018-02-12T14:30:02.656Z,17.5
2018-02-12T14:31:05.234Z,17.6
2018-02-12T14:32:07.789Z,17.5
2018-02-12T14:33:10.431Z,17.5
2018-02-12T14:34:13.017Z,17.4
2018-02-12T14:35:15.508Z,17.5
2018-02-12T14:36:18.204Z,17.5
2018-02-12T14:37:20.768Z,17.5
2018-02-12T14:37:38.249Z,17.5
2018-02-12T14:38:40.806Z,17.6
2018-02-12T14:39:43.314Z,17.5
2018-02-12T14:40:45.829Z,17.5
2018-02-12T14:41:48.504Z,17.5
2018-02-12T14:42:51.124Z,17.5
2018-02-12T14:43:53.909Z,17.5
2018-02-12T14:44:56.561Z,17.5
2018-02-12T14:45:59.243Z,17.5
2018-02-12T14:47:04.402Z,17.6
2018-02-12T14:48:07.053Z,17.6
2018-02-12T14:49:09.747Z,17.6
2018-02-12T14:50:13.268Z,17.6
2018-02-12T14:51:15.961Z,17.5
2018-02-12T14:52:19.281Z,17.6
2018-02-12T14:53:21.954Z,17.7
2018-02-12T14:54:24.439Z,17.7
2018-02-12T14:55:27.083Z,17.7
2018-02-12T14:56:29.517Z,17.7
2018-02-12T14:57:31.972Z,17.7
2018-02-12T14:58:34.615Z,17.6
2018-02-12T14:59:37.321Z,17.7
2018-02-12T15:00:39.828Z,17.6
2018-02-12T15:01:42.278Z,17.6
2018-02-12T15:02:44.775Z,17.5
2018-02-12T15:03:47.306Z,17.6
2018-02-12T15:04:49.886Z,17.6
2018-02-12T15:05:52.417Z,17.6
2018-02-12T15:06:54.977Z,17.5
2018-02-12T15:07:57.635Z,17.5
2018-02-12T15:09:00.102Z,17.5
2018-02-12T15:10:02.737Z,17.6
2018-02-12T15:11:05.230Z,17.6
2018-02-12T15:12:08.071Z,17.5
2018-02-12T15:13:10.559Z,17.5
2018-02-12T15:14:13.168Z,17.5
2018-02-12T15:15:15.658Z,17.5
2018-02-12T15:16:18.195Z,17.5
2018-02-12T15:17:21.455Z,17.5
2018-02-12T15:18:24.036Z,17.5
2018-02-12T15:19:26.783Z,17.4
2018-02-12T15:20:29.255Z,17.5
2018-02-12T15:21:31.784Z,17.5
2018-02-12T15:22:34.254Z,17.4
2018-02-12T15:23:36.848Z,17.5
2018-02-12T15:24:39.422Z,17.4
2018-02-12T15:25:41.917Z,17.5
2018-02-12T15:26:44.385Z,17.5
2018-02-12T15:27:46.892Z,17.4
2018-02-12T15:28:49.372Z,17.4
2018-02-12T15:29:51.871Z,17.3
2018-02-12T15:30:54.356Z,17.2
2018-02-12T15:31:56.988Z,17.2
2018-02-12T15:32:59.561Z,17.2
2018-02-12T15:34:02.105Z,17.2
2018-02-12T15:35:04.654Z,17.2
2018-02-12T15:36:07.276Z,17.2
2018-02-12T15:37:09.754Z,17.2
2018-02-12T15:38:12.273Z,17.1
2018-02-12T15:39:14.710Z,17.2
2018-02-12T15:40:17.255Z,17.2
2018-02-12T15:41:19.733Z,17
2018-02-12T15:42:22.327Z,17
2018-02-12T15:43:24.833Z,16.9
2018-02-12T15:44:27.784Z,16.8
2018-02-12T15:45:30.385Z,16.9
2018-02-12T15:46:32.884Z,16.9
2018-02-12T15:47:35.514Z,16.9
2018-02-12T15:48:38.270Z,16.9
2018-02-12T15:49:40.841Z,17.1
2018-02-12T15:50:43.382Z,17
2018-02-12T15:51:45.920Z,17
2018-02-12T15:52:52.312Z,17
2018-02-12T15:53:54.914Z,17
2018-02-12T15:54:57.518Z,17
2018-02-12T15:56:00.045Z,16.9
2018-02-12T15:57:02.657Z,16.9
2018-02-12T15:58:05.271Z,16.9
2018-02-12T15:59:08.368Z,16.8
2018-02-12T16:00:10.856Z,16.9
2018-02-12T16:01:15.944Z,16.8
2018-02-12T16:02:18.565Z,16.8
2018-02-12T16:03:21.057Z,16.7
2018-02-12T16:04:26.969Z,16.8
2018-02-12T16:05:29.498Z,16.9
2018-02-12T16:06:32.444Z,16.8
2018-02-12T16:07:35.385Z,16.8
2018-02-12T16:08:37.955Z,16.6
2018-02-12T16:09:40.570Z,16.6
2018-02-12T16:10:43.124Z,16.6
2018-02-12T16:11:45.638Z,16.6
2018-02-12T16:12:50.630Z,16.6
2018-02-12T16:13:53.197Z,16.6
2018-02-12T16:14:55.748Z,16.6
2018-02-12T16:15:58.478Z,16.7
2018-02-12T16:17:01.105Z,16.6
2018-02-12T16:18:03.629Z,16.6
2018-02-12T16:19:06.755Z,16.6
2018-02-12T16:20:09.253Z,16.5
2018-02-12T16:21:11.765Z,16.6
2018-02-12T16:22:14.481Z,16.6
2018-02-12T16:23:17.277Z,16.7
2018-02-12T16:24:19.883Z,16.7
2018-02-12T16:25:22.409Z,16.7
2018-02-12T16:26:25.066Z,16.9
2018-02-12T16:27:27.740Z,17.1
2018-02-12T16:28:30.206Z,17.3
2018-02-12T16:29:32.662Z,17.2
2018-02-12T16:30:35.163Z,17.2
2018-02-12T16:31:37.874Z,17.3
2018-02-12T16:32:40.464Z,17.4
2018-02-12T16:33:42.963Z,17.4
2018-02-12T16:34:45.453Z,17.4
2018-02-12T16:35:48.105Z,17.6
2018-02-12T16:36:50.689Z,17.7
2018-02-12T16:37:53.226Z,17.7
2018-02-12T16:38:55.732Z,17.9
2018-02-12T16:39:58.302Z,17.9
2018-02-12T16:41:00.824Z,17.9
2018-02-12T16:42:03.370Z,17.9
2018-02-12T16:43:06.224Z,18
2018-02-12T16:44:08.789Z,18
2018-02-12T16:45:11.245Z,17.9
2018-02-12T16:46:13.781Z,18
2018-02-12T16:47:16.216Z,17.9
2018-02-12T16:48:18.769Z,17.9
2018-02-12T16:49:21.256Z,17.9
2018-02-12T16:50:23.796Z,17.8
2018-02-12T16:51:26.636Z,17.7
2018-02-12T16:52:29.237Z,17.8
2018-02-12T16:53:32.615Z,17.7
2018-02-12T16:54:35.180Z,17.7
2018-02-12T16:55:37.713Z,17.5
2018-02-12T16:56:40.244Z,17.5
2018-02-12T16:57:42.856Z,17.5
2018-02-12T16:58:45.471Z,17.4
2018-02-12T16:59:48.038Z,17.4
2018-02-12T17:00:50.544Z,17.4
2018-02-12T17:01:53.086Z,17.4
2018-02-12T17:02:55.657Z,17.2
2018-02-12T17:03:58.229Z,17.3
2018-02-12T17:05:00.815Z,17.2
2018-02-12T17:06:03.356Z,17.2
2018-02-12T17:07:05.924Z,17.1
2018-02-12T17:08:08.658Z,17.1
2018-02-12T17:09:11.205Z,17
2018-02-12T17:10:13.722Z,17
2018-02-12T17:11:16.219Z,17.1
2018-02-12T17:12:18.813Z,17
2018-02-12T17:13:21.347Z,17
2018-02-12T17:14:23.871Z,17
2018-02-12T17:15:26.431Z,16.9
2018-02-12T17:16:32.919Z,16.8
2018-02-12T17:17:35.473Z,16.8
2018-02-12T17:18:38.139Z,16.8
2018-02-12T17:19:40.816Z,16.8
2018-02-12T17:20:43.347Z,16.8
2018-02-12T17:21:45.937Z,16.8
2018-02-12T17:22:48.502Z,16.7
2018-02-12T17:23:51.123Z,16.7
2018-02-12T17:24:53.744Z,16.7
2018-02-12T17:25:56.352Z,16.7
2018-02-12T17:26:58.959Z,16.7
2018-02-12T17:28:01.729Z,16.6
2018-02-12T17:29:04.369Z,16.6
2018-02-12T17:30:06.887Z,16.6
2018-02-12T17:31:09.491Z,16.4
2018-02-12T17:32:12.001Z,16.4
2018-02-12T17:33:14.535Z,16.4
2018-02-12T17:34:16.952Z,16.4
2018-02-12T17:35:19.465Z,16.5
2018-02-12T17:36:22.077Z,16.4
2018-02-12T17:37:24.578Z,16.5
2018-02-12T17:38:27.050Z,16.4
2018-02-12T17:39:29.651Z,16.4
2018-02-12T17:40:32.289Z,16.4
2018-02-12T17:41:34.919Z,16.5
2018-02-12T17:42:37.403Z,16.4
2018-02-12T17:43:43.119Z,16.4
2018-02-12T17:44:45.693Z,16.3
2018-02-12T17:45:48.321Z,16.4
2018-02-12T17:46:50.820Z,16.2
2018-02-12T17:47:54.925Z,16.4
2018-02-12T17:48:57.497Z,16.4
2018-02-12T17:50:00.058Z,16.4
2018-02-12T17:51:03.657Z,16.3
2018-02-12T17:52:06.223Z,16.3
2018-02-12T17:53:08.819Z,16.3
2018-02-12T17:54:11.373Z,16.3
2018-02-12T17:55:13.902Z,16.2
2018-02-12T17:56:22.346Z,16.4
2018-02-12T17:57:24.818Z,16.3
2018-02-12T17:58:27.313Z,16.3
2018-02-12T17:59:29.876Z,16.4
2018-02-12T18:00:32.471Z,16.4
2018-02-12T18:01:34.970Z,16.3
2018-02-12T18:02:40.815Z,16.3
2018-02-12T18:03:43.369Z,16.3
2018-02-12T18:04:45.800Z,16.2
2018-02-12T18:05:48.338Z,16.3
2018-02-12T18:06:50.954Z,16.4
2018-02-12T18:07:53.480Z,16.4
2018-02-12T18:08:56.012Z,16.3
2018-02-12T18:09:58.583Z,16.4
2018-02-12T18:11:01.100Z,16.6
2018-02-12T18:12:03.559Z,16.7
2018-02-12T18:13:08.628Z,16.8
2018-02-12T18:14:11.193Z,16.8
2018-02-12T18:15:13.729Z,17
2018-02-12T18:16:16.207Z,17.1
2018-02-12T18:17:24.040Z,17.1
2018-02-12T18:18:26.824Z,17.2
2018-02-12T18:19:29.376Z,17.2
2018-02-12T18:20:31.959Z,17.3
2018-02-12T18:21:34.452Z,17.5
2018-02-12T18:22:36.995Z,17.5
2018-02-12T18:23:39.599Z,17.5
2018-02-12T18:24:42.272Z,17.5
2018-02-12T18:25:44.727Z,17.6
2018-02-12T18:26:47.269Z,17.6
2018-02-12T18:27:49.840Z,17.6
2018-02-12T18:28:52.328Z,17.7
2018-02-12T18:29:54.937Z,17.9
2018-02-12T18:30:57.407Z,17.9
2018-02-12T18:31:59.901Z,17.8
2018-02-12T18:33:02.386Z,17.8
2018-02-12T18:34:04.930Z,17.9
2018-02-12T18:35:07.432Z,18
2018-02-12T18:36:10.020Z,18.1
2018-02-12T18:37:12.596Z,18.2
2018-02-12T18:38:15.084Z,18.4
2018-02-12T18:39:17.613Z,18.4
2018-02-12T18:40:20.087Z,18.4
2018-02-12T18:41:22.770Z,18.3
2018-02-12T18:42:25.245Z,18.3
2018-02-12T18:43:27.730Z,18.3
2018-02-12T18:44:30.299Z,18.3
2018-02-12T18:45:32.959Z,18.3
2018-02-12T18:46:35.439Z,18.5
2018-02-12T18:47:37.986Z,18.5
2018-02-12T18:48:40.883Z,18.7
2018-02-12T18:49:43.893Z,18.7
2018-02-12T18:50:46.422Z,18.7
2018-02-12T18:51:48.891Z,18.7
2018-02-12T18:52:51.477Z,18.5
2018-02-12T18:53:53.969Z,18.4
2018-02-12T18:54:56.454Z,18.5
2018-02-12T18:55:58.924Z,18.7
2018-02-12T18:57:03.616Z,18.7
2018-02-12T18:58:06.204Z,18.8
2018-02-12T18:59:09.386Z,18.8
2018-02-12T19:00:11.916Z,18.9
2018-02-12T19:01:14.435Z,19
2018-02-12T19:02:16.918Z,19
2018-02-12T19:03:19.454Z,18.9
2018-02-12T19:04:21.989Z,19
2018-02-12T19:05:24.506Z,18.9
2018-02-12T19:06:27.441Z,18.9
2018-02-12T19:07:30.388Z,18.9
2018-02-12T19:08:32.877Z,18.8
2018-02-12T19:10:46.530Z,18.8
2018-02-12T19:11:49.141Z,18.8
2018-02-12T19:12:51.671Z,18.7
2018-02-12T19:13:54.188Z,18.7
2018-02-12T19:14:57.342Z,18.7
2018-02-12T19:15:59.878Z,18.5
2018-02-12T19:17:02.490Z,18.5
2018-02-12T19:18:05.279Z,18.5
2018-02-12T19:19:07.804Z,18.4
2018-02-12T19:20:10.299Z,18.4
2018-02-12T19:21:12.868Z,18.3
2018-02-12T19:22:15.410Z,18.3
2018-02-12T19:23:17.880Z,18.3
2018-02-12T19:24:20.425Z,18.2
2018-02-12T19:25:22.874Z,18.1
2018-02-12T19:26:25.433Z,18.2
2018-02-12T19:27:27.978Z,18.1
2018-02-12T19:28:30.507Z,18
2018-02-12T19:29:33.081Z,17.7
2018-02-12T19:30:35.678Z,17.9
2018-02-12T19:31:38.205Z,17.8
2018-02-12T19:32:40.739Z,17.8
2018-02-12T19:33:43.241Z,17.8
2018-02-12T19:34:45.693Z,17.8
2018-02-12T19:35:48.337Z,17.7
2018-02-12T19:36:50.867Z,17.7
2018-02-12T19:37:53.324Z,17.7
2018-02-12T19:38:55.735Z,17.6
2018-02-12T19:39:58.271Z,17.6
2018-02-12T19:41:00.804Z,17.6
2018-02-12T19:42:03.300Z,17.5
2018-02-12T19:43:05.791Z,17.5
2018-02-12T19:44:08.295Z,17.4
2018-02-12T19:45:10.712Z,17.3
2018-02-12T19:46:19.405Z,17.2
2018-02-12T19:47:21.895Z,17.2
2018-02-12T19:48:24.420Z,17.1
2018-02-12T19:49:26.886Z,17
2018-02-12T19:50:29.502Z,16.8
2018-02-12T19:51:32.923Z,16.8
2018-02-12T19:52:35.458Z,16.9
2018-02-12T19:53:37.904Z,17.1
2018-02-12T19:54:40.411Z,17.1
2018-02-12T19:55:45.260Z,17.1
2018-02-12T19:56:47.896Z,17.1
2018-02-12T19:57:50.393Z,17
2018-02-12T19:58:52.851Z,17
2018-02-12T19:59:55.375Z,17
2018-02-12T20:00:57.844Z,17
2018-02-12T20:02:00.377Z,16.9
2018-02-12T20:03:03.942Z,16.9
2018-02-12T20:04:06.583Z,16.8
2018-02-12T20:05:09.071Z,16.8
2018-02-12T20:06:11.494Z,16.9
2018-02-12T20:07:13.969Z,16.9
2018-02-12T20:08:16.548Z,16.9
2018-02-12T20:09:19.101Z,16.9
2018-02-12T20:10:21.671Z,17
2018-02-12T20:11:24.161Z,17.2
2018-02-12T20:12:26.638Z,17.3
2018-02-12T20:13:30.879Z,17.4
2018-02-12T20:14:33.311Z,17.4
2018-02-12T20:15:35.840Z,17.3
2018-02-12T20:16:38.444Z,17.3
2018-02-12T20:17:40.908Z,17.4
2018-02-12T20:18:43.405Z,17.3
2018-02-12T20:19:45.974Z,17.3
2018-02-12T20:20:48.475Z,17.3
2018-02-12T20:21:50.944Z,17.3
2018-02-12T20:22:53.481Z,17.4
2018-02-12T20:23:55.980Z,17.6
2018-02-12T20:24:58.491Z,17.6
2018-02-12T20:26:01.113Z,17.8
2018-02-12T20:27:03.569Z,18
2018-02-12T20:28:08.678Z,18.2
2018-02-12T20:29:12.078Z,18.2
2018-02-12T20:30:14.576Z,18.4
2018-02-12T20:31:17.132Z,18.4
2018-02-12T20:32:19.647Z,18.3
2018-02-12T20:33:22.220Z,18.3
2018-02-12T20:34:24.726Z,18.5
2018-02-12T20:35:27.245Z,18.6
2018-02-12T20:36:29.844Z,18.8
2018-02-12T20:37:32.271Z,18.9
2018-02-12T20:38:34.771Z,19
2018-02-12T20:39:37.374Z,19
2018-02-12T20:40:39.945Z,18.9
2018-02-12T20:41:42.400Z,18.9
2018-02-12T20:42:44.916Z,19
2018-02-12T20:43:47.432Z,19.1
2018-02-12T20:44:50.015Z,19.2
2018-02-12T20:45:52.545Z,19.3
2018-02-12T20:46:55.048Z,19.1
2018-02-12T20:47:57.496Z,19.3
2018-02-12T20:49:00.009Z,19.4
2018-02-12T20:50:08.176Z,19.5
2018-02-12T20:51:10.881Z,19.5
2018-02-12T20:52:13.407Z,19.4
2018-02-12T20:53:15.879Z,19.3
2018-02-12T20:54:18.345Z,19.4
2018-02-12T20:55:21.034Z,19.5
2018-02-12T20:56:23.554Z,19.6
2018-02-12T20:57:25.994Z,19.6
2018-02-12T20:58:28.637Z,19.6
2018-02-12T20:59:31.212Z,19.5
2018-02-12T21:00:33.683Z,19.4
2018-02-12T21:01:36.109Z,19.3
2018-02-12T21:02:38.565Z,19.4
2018-02-12T21:03:41.005Z,19.4
2018-02-12T21:04:43.394Z,19.3
2018-02-12T21:05:45.906Z,19.2
2018-02-12T21:06:53.229Z,19
2018-02-12T21:07:55.704Z,19
2018-02-12T21:08:58.334Z,19
2018-02-12T21:10:00.920Z,19
2018-02-12T21:11:03.464Z,19
2018-02-12T21:12:05.944Z,18.9
2018-02-12T21:13:08.371Z,18.9
2018-02-12T21:14:10.970Z,18.8
2018-02-12T21:15:13.466Z,18.6
2018-02-12T21:16:16.064Z,18.6
2018-02-12T21:17:18.930Z,18.6
2018-02-12T21:18:22.195Z,18.6
2018-02-12T21:19:24.921Z,18.4
2018-02-12T21:20:27.486Z,18.5
2018-02-12T21:21:30.505Z,18.5
2018-02-12T21:22:33.097Z,18.3
2018-02-12T21:23:35.581Z,18.3
2018-02-12T21:24:38.101Z,18.2
2018-02-12T21:25:40.588Z,18.2
2018-02-12T21:26:42.995Z,18.1
2018-02-12T21:27:45.451Z,18.1
2018-02-12T21:28:48.038Z,18
2018-02-12T21:29:50.454Z,17.9
2018-02-12T21:30:52.968Z,17.9
2018-02-12T21:31:55.454Z,17.8
2018-02-12T21:32:57.903Z,17.6
2018-02-12T21:34:00.481Z,17.7
2018-02-12T21:35:03.009Z,17.7
2018-02-12T21:36:05.457Z,17.5
2018-02-12T21:37:07.976Z,17.5
2018-02-12T21:38:10.496Z,17.5
2018-02-12T21:39:12.966Z,17.5
2018-02-12T21:40:15.409Z,17.4
2018-02-12T21:41:17.830Z,17.2
2018-02-12T21:42:20.271Z,17.3
2018-02-12T21:43:23.032Z,17.3
2018-02-12T21:44:25.436Z,17.2
2018-02-12T21:45:27.891Z,17.2
2018-02-12T21:46:30.460Z,17.3
2018-02-12T21:47:32.859Z,17.3
2018-02-12T21:48:35.423Z,17.1
2018-02-12T21:49:37.894Z,17.1
2018-02-12T21:50:40.429Z,17.2
2018-02-12T21:51:43.003Z,17.2
2018-02-12T21:52:45.476Z,17.1
2018-02-12T21:53:47.953Z,17.1
2018-02-12T21:54:50.462Z,17.1
2018-02-12T21:55:52.935Z,17
2018-02-12T21:56:55.454Z,17.1
2018-02-12T21:57:57.961Z,17
2018-02-12T21:59:00.396Z,17.1
2018-02-12T22:00:02.854Z,17
2018-02-12T22:01:05.370Z,17.1
2018-02-12T22:02:07.803Z,17
2018-02-12T22:03:10.277Z,16.8
2018-02-12T22:04:12.715Z,16.9
2018-02-12T22:05:15.154Z,16.9
2018-02-12T22:06:20.144Z,16.8
2018-02-12T22:07:22.614Z,16.8
2018-02-12T22:08:25.072Z,16.8
2018-02-12T22:09:27.445Z,16.8
2018-02-12T22:10:29.917Z,16.9
2018-02-12T22:11:32.344Z,16.8
2018-02-12T22:12:34.786Z,16.7
2018-02-12T22:13:37.264Z,16.8
2018-02-12T22:14:39.672Z,16.8
2018-02-12T22:15:42.077Z,16.7
2018-02-12T22:16:44.454Z,16.7
2018-02-12T22:17:46.905Z,16.7
2018-02-12T22:18:49.344Z,16.7
2018-02-12T22:19:51.761Z,16.7
2018-02-12T22:20:54.176Z,16.6
2018-02-12T22:21:56.704Z,16.6
2018-02-12T22:22:59.338Z,16.6
2018-02-12T22:24:01.785Z,16.6
2018-02-12T22:25:04.197Z,16.5
2018-02-12T22:26:06.637Z,16.5
2018-02-12T22:27:09.165Z,16.5
2018-02-12T22:28:11.546Z,16.5
2018-02-12T22:29:13.989Z,16.4
2018-02-12T22:30:16.429Z,16.5
2018-02-12T22:31:18.940Z,16.4
2018-02-12T22:32:21.449Z,16.4
2018-02-12T22:33:25.660Z,16.4
2018-02-12T22:34:28.133Z,16.4
2018-02-12T22:35:30.661Z,16.3
2018-02-12T22:36:33.066Z,16.3
2018-02-12T22:37:35.505Z,16.2
2018-02-12T22:38:37.898Z,16.2
2018-02-12T22:39:40.352Z,16.2
2018-02-12T22:40:42.746Z,16.2
2018-02-12T22:41:45.160Z,16.2
2018-02-12T22:42:47.666Z,16.2
2018-02-12T22:43:50.215Z,16.2
2018-02-12T22:44:52.664Z,16.2
2018-02-12T22:45:55.049Z,16.2
2018-02-12T22:46:57.460Z,16.1
2018-02-12T22:48:00.236Z,16.1
2018-02-12T22:49:02.682Z,16.1
2018-02-12T22:50:05.119Z,16.2
2018-02-12T22:51:07.652Z,16.2
2018-02-12T22:52:10.160Z,16
2018-02-12T22:53:13.333Z,15.9
2018-02-12T22:54:16.342Z,16
2018-02-12T22:55:18.787Z,16
2018-02-12T22:56:26.228Z,15
2018-02-12T22:57:28.648Z,13
2018-02-12T22:59:38.312Z,11.5
2018-02-12T23:00:40.780Z,11.1
2018-02-12T23:01:43.187Z,10.6
2018-02-12T23:02:45.545Z,10.4
2018-02-12T23:03:48.016Z,10.4
2018-02-12T23:04:50.419Z,10.3
2018-02-12T23:05:52.835Z,10.1
2018-02-12T23:07:00.135Z,10.1
2018-02-12T23:08:02.577Z,10
2018-02-12T23:09:08.320Z,9.8
2018-02-12T23:10:10.741Z,9.7
2018-02-12T23:11:13.144Z,9.6
2018-02-12T23:12:15.587Z,9.5
2018-02-12T23:13:17.974Z,9.3
2018-02-12T23:14:20.486Z,9.3
2018-02-12T23:15:22.918Z,9
2018-02-12T23:16:25.351Z,8.7
2018-02-12T23:17:27.696Z,8.5
2018-02-12T23:18:30.131Z,8.6
2018-02-12T23:19:32.528Z,8.4
2018-02-12T23:20:35.245Z,8.6
2018-02-12T23:21:37.611Z,8.5
2018-02-12T23:22:40.044Z,8.1
2018-02-12T23:23:42.464Z,8.2
2018-02-12T23:24:44.888Z,8.2
2018-02-12T23:25:47.304Z,8.1
2018-02-12T23:26:49.722Z,7.8
2018-02-12T23:27:52.130Z,7.7
2018-02-12T23:28:54.548Z,7.7
2018-02-12T23:29:56.938Z,7.7
2018-02-12T23:30:59.330Z,7.9
2018-02-12T23:32:01.790Z,7.8
2018-02-12T23:33:04.179Z,7.8
2018-02-12T23:34:06.528Z,7.5
2018-02-12T23:35:09.576Z,7.5
2018-02-12T23:36:11.990Z,7.6
2018-02-12T23:37:14.386Z,7.6
2018-02-12T23:38:16.849Z,7.6
2018-02-12T23:39:19.284Z,7.6
2018-02-12T23:40:21.709Z,7.6
2018-02-12T23:41:24.127Z,7.5
2018-02-12T23:42:26.525Z,7.5
2018-02-12T23:43:28.972Z,7.7
2018-02-12T23:44:31.413Z,7.5
2018-02-12T23:45:33.787Z,7.5
2018-02-12T23:46:36.145Z,7.4
2018-02-12T23:47:38.522Z,7.5
2018-02-12T23:48:41.001Z,7.5
2018-02-12T23:49:43.435Z,7.3
2018-02-12T23:50:45.800Z,7.3
2018-02-12T23:51:48.488Z,7.4
2018-02-12T23:52:50.897Z,7.3
2018-02-12T23:53:53.284Z,7.2
2018-02-12T23:54:55.685Z,7
2018-02-12T23:55:58.092Z,7.1
2018-02-12T23:57:00.521Z,7.1
2018-02-12T23:58:02.924Z,6.8
2018-02-12T23:59:05.407Z,7.2
